Terminal Aerodrome Forecast
Issued by NWS

Home | Current Version | Previous Version | Text Only | Print | Product List | Glossary On
Versions: 1 2 3 4 5 6 7 8 9 10 11 12
956
FTUS45 KRIW 300528
TAFLND
TAF
KLND 300528Z 3006/3106 VRB05KT P6SM BKN120
     FM301400 VRB06KT P6SM SCT100 BKN150
     FM302200 21008KT P6SM VCSH SCT050 BKN080
     FM310100 01006KT P6SM SCT025 OVC040
     FM310300 36007KT P6SM -RA OVC024=

USA.gov is the U.S. government's official web portal to all federal, state and local government web resources and services.